createdAt,value
2022-10-11T00:01:19.169Z,64.29
2022-10-11T00:03:45.763Z,64.23
2022-10-11T00:06:12.363Z,64.22
2022-10-11T00:08:38.902Z,64.35
2022-10-11T00:11:07.035Z,63.98
2022-10-11T00:13:34.188Z,63.96
2022-10-11T00:16:01.151Z,63.86
2022-10-11T00:18:28.198Z,63.81
2022-10-11T00:21:03.102Z,63.75
2022-10-11T00:23:29.680Z,63.91
2022-10-11T00:26:00.657Z,64.09
2022-10-11T00:28:27.315Z,64.22
2022-10-11T00:30:53.940Z,64.21
2022-10-11T00:33:20.493Z,64.51
2022-10-11T00:35:47.143Z,64.58
2022-10-11T00:38:13.676Z,64.40
2022-10-11T00:40:40.339Z,64.49
2022-10-11T00:43:23.608Z,64.75
2022-10-11T00:46:13.414Z,64.79
2022-10-11T00:48:42.522Z,64.76
2022-10-11T00:51:21.554Z,64.89
2022-10-11T00:53:49.660Z,65.03
2022-10-11T00:56:27.297Z,64.79
2022-10-11T00:58:54.101Z,64.94
2022-10-11T01:01:20.749Z,65.11
2022-10-11T01:03:47.390Z,65.58
2022-10-11T01:06:14.004Z,65.39
2022-10-11T01:08:40.731Z,65.58
2022-10-11T01:11:11.120Z,65.65
2022-10-11T01:13:44.106Z,65.98
2022-10-11T01:16:28.923Z,66.08
2022-10-11T01:19:20.727Z,65.98
2022-10-11T01:21:56.653Z,66.47
2022-10-11T01:24:38.290Z,66.37
2022-10-11T01:27:26.010Z,66.64
2022-10-11T01:30:05.923Z,67.03
2022-10-11T01:32:58.150Z,67.53
2022-10-11T01:35:42.144Z,67.69
2022-10-11T01:38:23.042Z,67.60
2022-10-11T01:40:59.211Z,67.77
2022-10-11T01:43:26.659Z,67.94
2022-10-11T01:45:54.947Z,68.09
2022-10-11T01:48:21.553Z,68.34
2022-10-11T01:50:50.809Z,68.47
2022-10-11T01:53:38.827Z,68.59
2022-10-11T01:56:22.398Z,68.63
2022-10-11T01:59:02.517Z,68.37
2022-10-11T02:01:54.812Z,68.48
2022-10-11T02:04:31.036Z,68.44
2022-10-11T02:07:02.667Z,68.43
2022-10-11T02:09:36.504Z,68.36
2022-10-11T02:12:06.838Z,68.30
2022-10-11T02:14:37.208Z,68.59
2022-10-11T02:17:09.059Z,68.33
2022-10-11T02:19:38.707Z,68.43
2022-10-11T02:22:13.195Z,68.45
2022-10-11T02:24:42.127Z,68.78
2022-10-11T02:27:09.630Z,68.88
2022-10-11T02:29:38.522Z,68.78
2022-10-11T02:32:06.236Z,68.99
2022-10-11T02:34:36.277Z,69.07
2022-10-11T02:37:07.163Z,69.02
2022-10-11T02:39:52.653Z,68.97
2022-10-11T02:42:26.464Z,69.39
2022-10-11T02:45:12.210Z,69.17
2022-10-11T02:47:39.454Z,69.27
2022-10-11T02:50:06.334Z,69.22
2022-10-11T02:52:33.930Z,69.53
2022-10-11T02:55:00.507Z,69.84
2022-10-11T02:57:27.085Z,69.54
2022-10-11T02:59:53.640Z,69.90
2022-10-11T03:02:20.187Z,70.00
2022-10-11T03:04:46.736Z,70.06
2022-10-11T03:07:13.886Z,70.24
2022-10-11T03:09:41.046Z,70.33
2022-10-11T03:12:07.787Z,70.17
2022-10-11T03:14:34.355Z,70.26
2022-10-11T03:17:17.565Z,70.36
2022-10-11T03:19:47.723Z,70.36
2022-10-11T03:22:14.254Z,70.30
2022-10-11T03:24:40.793Z,70.61
2022-10-11T03:27:07.636Z,70.58
2022-10-11T03:29:34.254Z,70.88
2022-10-11T03:32:00.815Z,71.39
2022-10-11T03:34:27.394Z,71.42
2022-10-11T03:36:53.985Z,71.35
2022-10-11T03:39:20.548Z,71.43
2022-10-11T03:41:47.130Z,71.53
2022-10-11T03:44:13.686Z,71.28
2022-10-11T03:46:40.244Z,71.33
2022-10-11T03:49:06.803Z,71.29
2022-10-11T03:51:33.347Z,71.55
2022-10-11T03:53:59.894Z,71.40
2022-10-11T03:56:26.442Z,71.40
2022-10-11T03:58:53.017Z,71.45
2022-10-11T04:01:20.150Z,71.55
2022-10-11T04:03:46.755Z,71.93
2022-10-11T04:06:13.306Z,72.25
2022-10-11T04:08:39.848Z,72.41
2022-10-11T04:11:06.398Z,72.38
2022-10-11T04:13:32.946Z,72.39
2022-10-11T04:15:59.480Z,72.26
2022-10-11T04:18:26.073Z,72.11
2022-10-11T04:20:52.614Z,72.18
2022-10-11T04:23:19.164Z,72.39
2022-10-11T04:25:45.911Z,72.40
2022-10-11T04:28:12.509Z,72.53
2022-10-11T04:30:39.642Z,72.88
2022-10-11T04:33:06.175Z,72.67
2022-10-11T04:35:32.830Z,72.55
2022-10-11T04:37:59.417Z,72.26
2022-10-11T04:40:25.965Z,72.24
2022-10-11T04:42:53.817Z,72.25
2022-10-11T04:45:21.322Z,72.28
2022-10-11T04:47:48.685Z,72.26
2022-10-11T04:50:15.323Z,72.48
2022-10-11T04:52:41.991Z,72.30
2022-10-11T04:55:08.992Z,72.62
2022-10-11T04:57:35.534Z,72.97
2022-10-11T05:00:02.328Z,72.85
2022-10-11T05:02:28.951Z,72.90
2022-10-11T05:04:55.638Z,72.91
2022-10-11T05:07:22.421Z,73.00
2022-10-11T05:09:48.967Z,73.17
2022-10-11T05:12:16.736Z,72.88
2022-10-11T05:14:43.650Z,73.29
2022-10-11T05:17:10.288Z,73.27
2022-10-11T05:19:36.850Z,73.64
2022-10-11T05:22:03.426Z,73.84
2022-10-11T05:24:29.993Z,73.63
2022-10-11T05:27:00.896Z,73.56
2022-10-11T05:29:30.007Z,73.38
2022-10-11T05:31:56.720Z,73.13
2022-10-11T05:34:23.266Z,72.86
2022-10-11T05:36:49.841Z,72.87
2022-10-11T05:39:16.483Z,72.98
2022-10-11T05:41:43.042Z,72.85
2022-10-11T05:44:09.949Z,72.77
2022-10-11T05:46:36.531Z,72.90
2022-10-11T05:49:03.104Z,72.85
2022-10-11T05:51:29.758Z,72.88
2022-10-11T05:53:56.349Z,72.93
2022-10-11T05:56:24.806Z,73.08
2022-10-11T05:58:52.130Z,73.22
2022-10-11T06:01:20.986Z,73.54
2022-10-11T06:03:48.020Z,73.95
2022-10-11T06:06:15.001Z,73.85
2022-10-11T06:08:41.686Z,73.93
2022-10-11T06:11:15.630Z,73.97
2022-10-11T06:13:42.603Z,74.30
2022-10-11T06:16:09.562Z,74.22
2022-10-11T06:18:36.291Z,74.31
2022-10-11T06:21:03.218Z,74.70
2022-10-11T06:23:30.240Z,74.77
2022-10-11T06:25:58.130Z,74.90
2022-10-11T06:28:26.566Z,75.02
2022-10-11T06:30:53.208Z,74.83
2022-10-11T06:33:20.192Z,75.12
2022-10-11T06:35:46.762Z,74.99
2022-10-11T06:38:13.308Z,75.12
2022-10-11T06:40:39.863Z,75.04
2022-10-11T06:43:06.489Z,75.05
2022-10-11T06:45:33.202Z,75.02
2022-10-11T06:48:01.844Z,74.98
2022-10-11T06:50:54.363Z,74.93
2022-10-11T06:53:14.981Z,74.98
2022-10-11T06:55:41.534Z,75.44
2022-10-11T06:58:08.094Z,75.60
2022-10-11T07:00:34.756Z,75.52
2022-10-11T07:03:02.433Z,75.57
2022-10-11T07:05:31.718Z,75.52
2022-10-11T07:07:58.262Z,75.45
2022-10-11T07:10:25.008Z,75.56
2022-10-11T07:12:51.696Z,75.66
2022-10-11T07:15:18.284Z,76.00
2022-10-11T07:17:46.859Z,75.78
2022-10-11T07:20:13.414Z,75.85
2022-10-11T07:22:40.001Z,75.81
2022-10-11T07:25:07.008Z,75.96
2022-10-11T07:27:33.576Z,75.55
2022-10-11T07:30:00.133Z,75.41
2022-10-11T07:32:26.796Z,75.08
2022-10-11T07:34:53.519Z,74.92
2022-10-11T07:37:20.104Z,74.67
2022-10-11T07:39:49.167Z,74.46
2022-10-11T07:42:15.773Z,74.21
2022-10-11T07:44:42.342Z,74.19
2022-10-11T07:47:11.284Z,73.90
2022-10-11T07:49:38.210Z,74.24
2022-10-11T07:52:05.013Z,74.13
2022-10-11T07:54:32.806Z,73.79
2022-10-11T07:56:59.486Z,73.66
2022-10-11T07:59:26.058Z,73.66
2022-10-11T08:01:53.814Z,73.46
2022-10-11T08:04:21.534Z,73.62
2022-10-11T08:06:52.448Z,73.90
2022-10-11T08:09:19.975Z,73.75
2022-10-11T08:11:46.515Z,73.37
2022-10-11T08:14:13.063Z,73.72
2022-10-11T08:16:39.947Z,73.56
2022-10-11T08:19:07.122Z,73.09
2022-10-11T08:21:34.023Z,72.57
2022-10-11T08:24:02.538Z,71.12
2022-10-11T08:26:29.430Z,69.62
2022-10-11T08:28:56.414Z,68.24
2022-10-11T08:31:23.002Z,66.61
2022-10-11T08:33:49.595Z,65.82
2022-10-11T08:36:16.237Z,64.54
2022-10-11T08:38:42.905Z,62.84
2022-10-11T08:41:42.871Z,62.45
2022-10-11T08:44:46.406Z,61.07
2022-10-11T08:47:32.062Z,59.53
2022-10-11T08:50:00.106Z,58.95
2022-10-11T08:52:43.175Z,57.31
2022-10-11T08:55:47.443Z,56.41
2022-10-11T08:58:16.478Z,55.06
2022-10-11T09:00:46.338Z,55.54
2022-10-11T09:03:28.678Z,53.65
2022-10-11T09:06:10.687Z,53.65
2022-10-11T09:08:47.190Z,53.46
2022-10-11T09:11:25.931Z,52.83
2022-10-11T09:14:09.606Z,52.34
2022-10-11T09:17:10.393Z,50.93
2022-10-11T09:19:45.374Z,50.37
2022-10-11T09:22:17.779Z,50.63
2022-10-11T09:24:57.321Z,50.42
2022-10-11T09:27:57.231Z,48.57
2022-10-11T09:30:19.296Z,48.57
2022-10-11T09:33:03.157Z,48.58
2022-10-11T09:35:33.017Z,48.12
2022-10-11T09:38:04.713Z,47.33
2022-10-11T09:40:38.987Z,47.14
2022-10-11T09:43:05.898Z,47.43
2022-10-11T09:45:32.455Z,47.00
2022-10-11T09:47:59.954Z,46.24
2022-10-11T09:50:28.418Z,46.37
2022-10-11T09:52:58.346Z,45.90
2022-10-11T09:55:50.360Z,44.90
2022-10-11T09:58:30.415Z,44.75
2022-10-11T10:01:07.576Z,44.28
2022-10-11T10:03:43.058Z,42.31
2022-10-11T10:06:15.734Z,43.43
2022-10-11T10:08:47.277Z,42.94
2022-10-11T10:11:14.645Z,42.31
2022-10-11T10:13:44.626Z,42.85
2022-10-11T10:16:28.811Z,42.62
2022-10-11T10:18:57.557Z,43.23
2022-10-11T10:21:28.189Z,43.15
2022-10-11T10:23:55.757Z,42.11
2022-10-11T10:26:24.978Z,41.52
2022-10-11T10:28:59.296Z,41.07
2022-10-11T10:31:44.487Z,40.66
2022-10-11T10:34:30.379Z,39.21
2022-10-11T10:37:01.686Z,39.85
2022-10-11T10:39:42.644Z,39.68
2022-10-11T10:42:15.715Z,38.50
2022-10-11T10:44:43.203Z,38.37
2022-10-11T10:47:19.571Z,37.30
2022-10-11T10:49:55.068Z,38.15
2022-10-11T10:52:39.549Z,38.83
2022-10-11T10:55:12.268Z,39.70
2022-10-11T10:57:53.226Z,37.95
2022-10-11T11:00:21.629Z,38.76
2022-10-11T11:03:12.345Z,38.20
2022-10-11T11:05:53.762Z,37.12
2022-10-11T11:08:54.125Z,38.53
2022-10-11T11:11:39.531Z,39.20
2022-10-11T11:14:21.912Z,39.81
2022-10-11T11:17:01.915Z,40.43
2022-10-11T11:20:10.486Z,40.80
2022-10-11T11:22:46.150Z,40.23
2022-10-11T11:25:27.721Z,40.69
2022-10-11T11:28:02.669Z,40.36
2022-10-11T11:30:39.110Z,41.70
2022-10-11T11:33:24.459Z,42.51
2022-10-11T11:35:54.362Z,41.88
2022-10-11T11:38:46.822Z,42.24
2022-10-11T11:41:34.690Z,43.28
2022-10-11T11:44:11.278Z,43.93
2022-10-11T11:47:11.082Z,43.02
2022-10-11T11:49:45.239Z,42.81
2022-10-11T11:52:17.881Z,43.22
2022-10-11T11:55:01.462Z,43.40
2022-10-11T11:57:40.295Z,42.90
2022-10-11T12:00:14.260Z,43.96
2022-10-11T12:02:52.126Z,43.16
2022-10-11T12:05:23.313Z,44.29
2022-10-11T12:08:11.704Z,45.30
2022-10-11T12:10:51.422Z,44.48
2022-10-11T12:13:38.716Z,43.67
2022-10-11T12:16:13.646Z,43.22
2022-10-11T12:19:02.092Z,44.09
2022-10-11T12:21:33.205Z,44.29
2022-10-11T12:24:01.469Z,44.98
2022-10-11T12:26:27.908Z,46.78
2022-10-11T12:29:01.698Z,46.23
2022-10-11T12:31:32.441Z,45.69
2022-10-11T12:34:01.948Z,45.78
2022-10-11T12:36:29.659Z,45.69
2022-10-11T12:39:42.127Z,47.23
2022-10-11T12:42:32.149Z,45.64
2022-10-11T12:45:10.805Z,47.13
2022-10-11T12:47:48.642Z,47.05
2022-10-11T12:50:22.929Z,48.14
2022-10-11T12:53:10.719Z,47.76
2022-10-11T12:55:52.570Z,49.26
2022-10-11T12:58:31.639Z,50.90
2022-10-11T13:00:58.157Z,51.13
2022-10-11T13:03:31.866Z,49.77
2022-10-11T13:06:01.709Z,49.87
2022-10-11T13:08:36.920Z,50.11
2022-10-11T13:11:06.613Z,49.66
2022-10-11T13:13:38.865Z,49.42
2022-10-11T13:16:13.627Z,48.92
2022-10-11T13:18:46.130Z,48.33
2022-10-11T13:21:27.026Z,48.38
2022-10-11T13:24:02.275Z,47.74
2022-10-11T13:26:30.858Z,47.58
2022-10-11T13:28:57.761Z,47.88
2022-10-11T13:31:25.319Z,46.73
2022-10-11T13:33:56.538Z,47.85
2022-10-11T13:36:26.757Z,46.55
2022-10-11T13:38:56.811Z,45.84
2022-10-11T13:41:26.233Z,46.87
2022-10-11T13:43:53.586Z,46.83
2022-10-11T13:46:23.407Z,45.35
2022-10-11T13:48:59.896Z,46.06
2022-10-11T13:51:35.999Z,46.59
2022-10-11T13:54:13.618Z,46.10
2022-10-11T13:56:46.449Z,45.76
2022-10-11T13:59:18.949Z,46.50
2022-10-11T14:01:46.064Z,46.29
2022-10-11T14:04:17.583Z,45.50
2022-10-11T14:06:52.024Z,45.51
2022-10-11T14:09:25.587Z,45.89
2022-10-11T14:11:52.306Z,46.47
2022-10-11T14:14:48.385Z,46.70
2022-10-11T14:17:20.807Z,46.92
2022-10-11T14:19:51.481Z,47.28
2022-10-11T14:22:18.749Z,47.78
2022-10-11T14:24:48.634Z,46.14
2022-10-11T14:27:19.396Z,46.74
2022-10-11T14:30:06.049Z,46.50
2022-10-11T14:32:34.197Z,46.73
2022-10-11T14:35:01.081Z,46.59
2022-10-11T14:37:27.687Z,46.89
2022-10-11T14:39:54.319Z,47.26
2022-10-11T14:42:21.162Z,46.56
2022-10-11T14:44:47.701Z,45.77
2022-10-11T14:47:16.434Z,46.97
2022-10-11T14:49:43.971Z,47.65
2022-10-11T14:52:12.096Z,49.09
2022-10-11T14:54:38.829Z,49.10
2022-10-11T14:57:08.089Z,48.91
2022-10-11T14:59:36.971Z,48.54
2022-10-11T15:02:05.916Z,48.49
2022-10-11T15:04:32.831Z,49.18
2022-10-11T15:06:59.662Z,49.84
2022-10-11T15:09:29.197Z,50.39
2022-10-11T15:11:56.321Z,49.41
2022-10-11T15:14:23.977Z,49.48
2022-10-11T15:16:50.515Z,50.68
2022-10-11T15:19:21.736Z,51.43
2022-10-11T15:21:48.732Z,51.16
2022-10-11T15:24:15.528Z,52.18
2022-10-11T15:26:42.384Z,52.40
2022-10-11T15:29:11.142Z,52.73
2022-10-11T15:31:37.669Z,53.27
2022-10-11T15:34:04.278Z,53.47
2022-10-11T15:36:30.831Z,53.65
2022-10-11T15:38:57.600Z,53.92
2022-10-11T15:41:25.143Z,54.33
2022-10-11T15:43:52.266Z,54.69
2022-10-11T15:46:22.298Z,55.18
2022-10-11T15:48:49.931Z,55.25
2022-10-11T15:51:17.002Z,54.91
2022-10-11T15:53:43.802Z,55.79
2022-10-11T15:56:15.387Z,55.58
2022-10-11T15:58:42.234Z,56.05
2022-10-11T16:01:20.761Z,56.98
2022-10-11T16:03:48.411Z,56.91
2022-10-11T16:06:15.579Z,57.00
2022-10-11T16:08:42.138Z,56.50
2022-10-11T16:11:09.668Z,57.29
2022-10-11T16:13:36.857Z,57.20
2022-10-11T16:16:05.500Z,57.55
2022-10-11T16:18:35.582Z,57.78
2022-10-11T16:21:05.993Z,58.18
2022-10-11T16:23:32.713Z,58.42
2022-10-11T16:26:01.133Z,58.37
2022-10-11T16:28:28.468Z,58.83
2022-10-11T16:30:55.247Z,58.35
2022-10-11T16:33:22.084Z,58.58
2022-10-11T16:35:48.791Z,58.74
2022-10-11T16:38:15.634Z,59.16
2022-10-11T16:40:43.227Z,59.04
2022-10-11T16:43:10.169Z,59.25
2022-10-11T16:45:36.930Z,59.18
2022-10-11T16:48:03.880Z,59.24
2022-10-11T16:50:35.546Z,59.80
2022-10-11T16:53:05.029Z,59.78
2022-10-11T16:55:31.734Z,59.92
2022-10-11T16:57:58.261Z,60.14
2022-10-11T17:00:25.018Z,60.78
2022-10-11T17:02:51.892Z,60.94
2022-10-11T17:05:18.473Z,61.00
2022-10-11T17:07:45.104Z,60.85
2022-10-11T17:10:11.932Z,60.92
2022-10-11T17:12:38.833Z,61.15
2022-10-11T17:15:06.219Z,61.82
2022-10-11T17:17:33.846Z,61.78
2022-10-11T17:20:02.510Z,61.71
2022-10-11T17:22:29.223Z,62.10
2022-10-11T17:24:55.934Z,61.85
2022-10-11T17:27:22.603Z,62.03
2022-10-11T17:29:49.263Z,62.33
2022-10-11T17:32:15.979Z,62.47
2022-10-11T17:34:42.523Z,62.66
2022-10-11T17:37:10.128Z,62.89
2022-10-11T17:39:36.722Z,63.06
2022-10-11T17:42:07.372Z,62.97
2022-10-11T17:44:34.918Z,63.44
2022-10-11T17:47:02.607Z,63.40
2022-10-11T17:49:29.203Z,63.25
2022-10-11T17:51:56.767Z,63.31
2022-10-11T17:54:23.804Z,63.21
2022-10-11T17:56:50.559Z,63.61
2022-10-11T17:59:18.985Z,63.60
2022-10-11T18:01:45.790Z,63.68
2022-10-11T18:04:16.778Z,63.98
2022-10-11T18:06:45.351Z,63.94
2022-10-11T18:09:13.038Z,63.82
2022-10-11T18:11:39.601Z,63.85
2022-10-11T18:14:06.207Z,64.37
2022-10-11T18:16:33.208Z,64.63
2022-10-11T18:19:02.256Z,64.56
2022-10-11T18:21:34.268Z,64.67
2022-10-11T18:24:04.647Z,64.48
2022-10-11T18:26:32.139Z,64.73
2022-10-11T18:28:58.999Z,64.84
2022-10-11T18:31:28.562Z,64.68
2022-10-11T18:33:55.235Z,64.68
2022-10-11T18:36:24.528Z,65.08
2022-10-11T18:38:55.045Z,65.25
2022-10-11T18:41:22.916Z,65.09
2022-10-11T18:43:55.259Z,64.81
2022-10-11T18:46:22.859Z,65.05
2022-10-11T18:48:51.655Z,65.17
2022-10-11T18:51:20.722Z,65.14
2022-10-11T18:53:48.108Z,65.18
2022-10-11T18:56:16.423Z,65.00
2022-10-11T18:58:45.167Z,65.10
2022-10-11T19:01:16.241Z,65.26
2022-10-11T19:03:43.917Z,65.10
2022-10-11T19:06:19.185Z,65.04
2022-10-11T19:08:53.858Z,64.98
2022-10-11T19:11:22.276Z,65.34
2022-10-11T19:13:55.492Z,65.45
2022-10-11T19:16:22.527Z,65.38
2022-10-11T19:18:50.054Z,65.25
2022-10-11T19:21:17.106Z,65.32
2022-10-11T19:23:46.014Z,65.28
2022-10-11T19:26:15.053Z,65.32
2022-10-11T19:28:42.015Z,65.04
2022-10-11T19:31:10.423Z,65.19
2022-10-11T19:33:37.078Z,65.41
2022-10-11T19:36:05.730Z,65.47
2022-10-11T19:38:35.967Z,65.31
2022-10-11T19:41:04.060Z,65.32
2022-10-11T19:43:31.697Z,65.34
2022-10-11T19:46:02.890Z,65.52
2022-10-11T19:48:30.182Z,65.72
2022-10-11T19:51:08.167Z,65.80
2022-10-11T19:53:35.311Z,65.60
2022-10-11T19:56:06.646Z,65.59
2022-10-11T19:58:33.328Z,65.60
2022-10-11T20:01:01.875Z,65.65
2022-10-11T20:03:31.318Z,65.99
2022-10-11T20:06:02.051Z,66.01
2022-10-11T20:08:31.339Z,66.03
2022-10-11T20:10:59.668Z,65.94
2022-10-11T20:13:30.040Z,65.95
2022-10-11T20:16:12.011Z,66.00
2022-10-11T20:18:39.067Z,65.69
2022-10-11T20:21:14.015Z,65.92
2022-10-11T20:26:29.854Z,66.05
2022-10-11T20:28:57.461Z,66.00
2022-10-11T20:31:32.948Z,66.09
2022-10-11T20:34:02.471Z,66.03
2022-10-11T20:36:30.230Z,66.01
2022-10-11T20:38:58.012Z,66.05
2022-10-11T20:41:27.249Z,66.02
2022-10-11T20:43:55.628Z,66.06
2022-10-11T20:46:24.437Z,66.22
2022-10-11T20:48:57.610Z,66.00
2022-10-11T20:51:27.628Z,66.20
2022-10-11T20:53:54.632Z,66.09
2022-10-11T20:56:22.151Z,66.11
2022-10-11T20:58:52.905Z,66.25
2022-10-11T21:01:22.434Z,66.14
2022-10-11T21:03:49.505Z,66.13
2022-10-11T21:06:16.034Z,66.18
2022-10-11T21:08:42.567Z,66.04
2022-10-11T21:11:09.836Z,66.14
2022-10-11T21:13:36.760Z,66.43
2022-10-11T21:16:08.201Z,66.28
2022-10-11T21:18:34.737Z,66.29
2022-10-11T21:21:09.120Z,66.10
2022-10-11T21:23:35.676Z,66.21
2022-10-11T21:26:07.832Z,66.10
2022-10-11T21:28:34.558Z,66.35
2022-10-11T21:31:10.594Z,66.26
2022-10-11T21:33:37.467Z,66.38
2022-10-11T21:36:05.438Z,66.50
2022-10-11T21:38:32.266Z,66.43
2022-10-11T21:40:58.801Z,66.23
2022-10-11T21:43:25.329Z,66.29
2022-10-11T21:45:51.910Z,66.30
2022-10-11T21:48:18.438Z,66.50
2022-10-11T21:50:44.982Z,66.74
2022-10-11T21:53:11.524Z,66.57
2022-10-11T21:55:38.071Z,66.52
2022-10-11T21:58:06.202Z,66.48
2022-10-11T22:00:32.735Z,66.71
2022-10-11T22:02:59.274Z,66.71
2022-10-11T22:05:25.844Z,66.82
2022-10-11T22:07:52.383Z,66.64
2022-10-11T22:10:18.959Z,66.81
2022-10-11T22:12:45.538Z,66.61
2022-10-11T22:15:12.075Z,66.74
2022-10-11T22:17:38.641Z,66.67
2022-10-11T22:20:05.401Z,66.64
2022-10-11T22:22:31.981Z,66.72
2022-10-11T22:24:58.531Z,66.58
2022-10-11T22:27:26.271Z,66.84
2022-10-11T22:29:52.808Z,66.68
2022-10-11T22:32:19.341Z,66.57
2022-10-11T22:34:45.883Z,66.59
2022-10-11T22:37:12.430Z,66.67
2022-10-11T22:39:39.143Z,66.80
2022-10-11T22:42:05.678Z,66.85
2022-10-11T22:44:32.198Z,66.80
2022-10-11T22:46:58.759Z,66.76
2022-10-11T22:49:25.291Z,66.75
2022-10-11T22:51:51.848Z,66.71
2022-10-11T22:54:18.379Z,66.95
2022-10-11T22:56:44.917Z,66.62
2022-10-11T22:59:11.554Z,66.48
2022-10-11T23:01:38.079Z,66.73
2022-10-11T23:04:04.792Z,66.62
2022-10-11T23:06:32.025Z,66.60
2022-10-11T23:08:58.587Z,66.86
2022-10-11T23:11:25.130Z,66.68
2022-10-11T23:13:51.665Z,66.59
2022-10-11T23:16:18.235Z,66.81
2022-10-11T23:18:44.776Z,66.77
2022-10-11T23:21:11.517Z,66.85
2022-10-11T23:23:39.832Z,66.81
2022-10-11T23:26:12.525Z,66.99
2022-10-11T23:28:39.367Z,66.80
2022-10-11T23:31:11.637Z,67.02
2022-10-11T23:33:38.638Z,66.70
2022-10-11T23:36:05.942Z,66.60
2022-10-11T23:38:32.609Z,66.72
2022-10-11T23:40:59.464Z,66.77
2022-10-11T23:43:25.990Z,66.75
2022-10-11T23:45:54.129Z,66.61
2022-10-11T23:48:20.664Z,66.60
2022-10-11T23:50:47.227Z,66.72
2022-10-11T23:53:13.839Z,66.86
2022-10-11T23:55:40.672Z,67.05
2022-10-11T23:58:07.204Z,67.13
